Butte, Montana
Current Conditions -  °F | °C
As of 4:53 PM on Monday 20 Oct 2014 (Local Time) from KBTM Reporting Station
Broken Clouds Broken Clouds  
Wind Chill: 71°   Ceiling: 11000
Heat Index: 71°   Visibility: 10mi
Dew Point: 31°   Wind: 13mph
Humidity: 23%   Direction: 170°S
Pressure: 29.89"   Gusts: 23mph
Location:  45.95°N, 112.5°W
Report Text: KBTM 202253Z AUTO 17011G20KT 10SM BKN110 22/M01 A2989 RMK AO2 SLP095 T02171006
Loading
Personal Weather Stations






























Interactive Weather Map
Tropical Storm Tracking
New forecast layout! Learn more

10-Day Weather Forecast

Advertisements
Track Severe Weather on mobile